パリ/シャルル・ド・ゴール の空港の天気 - METARとTAF

シャルル・ド・ゴール国際空港(パリ) ( LFPG / CDG ) - フランス Paris
飛行場実況気象(Metar)
観測時間10/23 08:00 CEST (10/23 06:00 UTC)
風向・風速北東 5m/s
視程10km以上
天気現象
なし
気温11℃
湿度87%
気圧1014hPa
METARLFPG 230600Z 04010KT 020V080 CAVOK 11/09 Q1014 NOSIG
過去の天気等 Google飛行場航空写真 Wunderground天気予報

過去48時間のMETAR

飛行場予報(TAF)
発表時間: 10/23 07:00 CEST (10/23 05:00 UTC)
予報対象時間: 23日8時 CEST ~ 24日14時 CEST
風向・風速北東 5m/s
視程10km以上
なし
23日11時 CEST ~ 23日13時 CEST に 確率 30% で一時的に
全天の8割程度の雲 雲底高度 240m
23日12時 CEST ~ 23日14時 CEST に徐々に
風向・風速東南東 6m/s
24日0時 CEST ~ 24日2時 CEST に 確率 30% で一時的に
視程4500m
天気現象もや
24日6時 CEST ~ 24日8時 CEST に徐々に
風向・風速南 5m/s
TAF LFPG 230500Z 2306/2412 04010KT CAVOK TX18/2315Z TN11/2306Z
PROB30 TEMPO 2309/2311 BKN008
BECMG 2310/2312 11012KT
PROB30 TEMPO 2322/2324 4500 BR
BECMG 2404/2406 17010KT